Terminal Aerodrome Forecast
Issued by NWS

Home | Current Version | Previous Version | Text Only | Print | Product List | Glossary On
Versions: 1 2 3 4 5 6 7 8 9 10 11 12 13 14 15 16 17 18
000
FTUS44 KHGX 301343 AAA
TAFCXO
TAF AMD
KCXO 301343Z 3014/3112 VRB04KT P6SM FEW050
     FM301500 05004KT P6SM SCT028 BKN250
     FM301800 07005KT P6SM SCT040 BKN250
     FM310300 00000KT P6SM SCT150=

USA.gov is the U.S. government's official web portal to all federal, state and local government web resources and services.